Time;durP1;ratioP1;P1;durP2;ratioP2;P2;SDS_P1;SDS_P2;PMS_P1;PMS_P2;Temp;Humidity;BMP_temperature;BMP_pressure;BME280_temperature;BME280_humidity;BME280_pressure;Samples;Min_cycle;Max_cycle;Signal;HPM_P1;HPM_P2
2022/05/12 01:30:20;;;;;;;;;;;;;;;;;;;;;
2022/05/12 01:32:51;;;;;;;;;;;;;;;6.82;100.00;100518.28;4753045;30;20095;-74
2022/05/12 01:35:32;;;;;;;6.03;2.20;;;;;;;6.70;100.00;100505.75;4786385;29;19957;-75
2022/05/12 01:38:01;;;;;;;5.55;1.48;;;;;;;6.81;100.00;100513.06;4843679;29;20050;-74
2022/05/12 01:40:35;;;;;;;4.70;1.48;;;;;;;6.68;100.00;100511.44;4818724;29;20072;-75
2022/05/12 01:43:01;;;;;;;8.75;1.60;;;;;;;6.55;100.00;100506.25;4833520;29;20052;-75
2022/05/12 01:45:27;;;;;;;9.38;1.77;;;;;;;6.59;100.00;100513.69;4867924;29;20055;-76
2022/05/12 01:47:52;;;;;;;4.57;1.65;;;;;;;6.66;100.00;100526.31;4883448;29;20052;-76
2022/05/12 01:50:29;;;;;;;9.85;2.28;;;;;;;6.46;100.00;100494.91;4865717;29;20085;-74
2022/05/12 01:53:15;;;;;;;4.75;1.77;;;;;;;6.55;100.00;100517.13;4877854;29;20037;-74
2022/05/12 01:55:50;;;;;;;4.70;1.27;;;;;;;6.30;100.00;100488.31;4897065;29;20038;-75
2022/05/12 01:58:21;;;;;;;5.90;1.23;;;;;;;6.39;100.00;100503.16;4879802;29;20025;-74
2022/05/12 02:00:49;;;;;;;3.45;1.33;;;;;;;6.36;100.00;100509.06;4881736;29;20041;-74
2022/05/12 02:03:43;;;;;;;1.80;1.08;;;;;;;6.37;100.00;100516.19;4851169;29;20036;-74
2022/05/12 02:06:01;;;;;;;1.30;0.80;;;;;;;6.34;100.00;100522.09;4877170;29;20033;-75
2022/05/12 02:08:27;;;;;;;3.92;0.70;;;;;;;6.38;100.00;100531.41;4893397;29;20033;-76
2022/05/12 02:10:53;;;;;;;2.75;0.68;;;;;;;6.25;100.00;100528.91;4869784;29;20492;-74
2022/05/12 02:13:25;;;;;;;2.40;0.75;;;;;;;6.29;100.00;100536.38;4861693;29;20060;-75
2022/05/12 02:15:54;;;;;;;3.05;1.33;;;;;;;6.16;100.00;100516.75;4868818;29;20108;-75
2022/05/12 02:18:24;;;;;;;9.00;1.33;;;;;;;6.02;100.00;100491.72;4876350;29;20025;-75
2022/05/12 02:21:00;;;;;;;;;;;;;;;;;;;;;
2022/05/12 02:23:46;;;;;;;2.22;1.25;;;;;;;6.28;100.00;100533.91;4877074;29;20116;-77
2022/05/12 02:26:12;;;;;;;3.10;1.30;;;;;;;6.28;100.00;100528.47;4872540;29;20052;-78
2022/05/12 02:28:43;;;;;;;8.77;1.98;;;;;;;6.27;100.00;100526.78;4883942;29;20124;-80
2022/05/12 03:18:49;;;;;;;;;;;;;;;;;;;;;
2022/05/12 03:28:21;;;;;;;9.55;1.60;;;;;;;5.88;100.00;100538.00;4820932;29;20079;-77
2022/05/12 03:31:00;;;;;;;;;;;;;;;;;;;;;
2022/05/12 03:36:46;;;;;;;;;;;;;;;;;;;;;
2022/05/12 03:39:14;;;;;;;5.75;1.60;;;;;;;5.83;100.00;100509.94;4838913;29;20030;-76
2022/05/12 03:41:48;;;;;;;15.98;2.17;;;;;;;6.14;100.00;100548.75;4835448;29;20038;-75
2022/05/12 03:44:51;;;;;;;12.75;2.22;;;;;;;6.05;100.00;100532.78;4824423;29;20025;-76
2022/05/12 03:47:48;;;;;;;15.75;2.35;;;;;;;6.14;100.00;100549.56;4845476;29;20550;-77
2022/05/12 03:50:31;;;;;;;5.07;1.58;;;;;;;6.00;100.00;100521.81;4876964;29;20059;-76
2022/05/12 03:52:57;;;;;;;10.90;2.08;;;;;;;6.19;100.00;100555.13;4901480;29;20180;-76
2022/05/12 03:55:29;;;;;;;14.27;2.55;;;;;;;5.95;100.00;100517.03;4877372;29;20092;-76
2022/05/12 03:57:55;;;;;;;14.05;1.88;;;;;;;6.27;100.00;100556.66;4902559;29;20099;-76
2022/05/12 04:00:29;;;;;;;14.95;2.90;;;;;;;6.38;100.00;100555.88;4885810;29;20024;-76
2022/05/12 04:02:56;;;;;;;14.60;3.17;;;;;;;6.43;100.00;100558.69;4865750;29;20040;-75
2022/05/12 04:05:25;;;;;;;10.70;2.38;;;;;;;6.27;100.00;100538.47;4886503;29;20036;-75
2022/05/12 04:08:01;;;;;;;16.92;2.58;;;;;;;6.40;100.00;100558.34;4902583;29;20044;-77
2022/05/12 04:10:37;;;;;;;;;;;;;;;;;;;;;
2022/05/12 04:13:04;;;;;;;14.38;2.55;;;;;;;6.33;100.00;100528.56;4897434;29;20108;-76
2022/05/12 04:15:42;;;;;;;;;;;;;;;;;;;;;
2022/05/12 04:18:09;;;;;;;9.55;2.50;;;;;;;6.31;100.00;100544.28;4900935;29;20088;-75
2022/05/12 04:20:44;;;;;;;7.80;2.13;;;;;;;6.33;100.00;100558.44;4872900;29;20120;-76
2022/05/12 04:23:18;;;;;;;18.73;2.55;;;;;;;6.24;100.00;100554.44;4870560;29;20024;-75
2022/05/12 04:25:54;;;;;;;;;;;;;;;6.23;100.00;100567.16;4897704;29;20047;-75
2022/05/12 04:28:20;;;;;;;;;;;;;;;6.22;100.00;100579.09;4908343;29;20389;-75
2022/05/12 04:31:36;;;;;;;;;;;;;;;;;;;;;
2022/05/12 04:52:03;;;;;;;;;;;;;;;;;;;;;
2022/05/12 04:55:57;;;;;;;16.05;1.92;;;;;;;5.98;100.00;100607.25;4727415;30;20056;-75
2022/05/12 05:27:00;;;;;;;11.85;2.60;;;;;;;6.35;100.00;100593.53;4777829;29;20178;-75
2022/05/12 05:43:31;;;;;;;8.10;2.17;;;;;;;6.91;100.00;100635.63;4806880;29;20451;-75
2022/05/12 05:46:00;;;;;;;11.95;2.90;;;;;;;6.96;100.00;100643.06;4840969;29;20133;-76
2022/05/12 06:02:44;;;;;;;12.95;2.50;;;;;;;7.57;100.00;100670.81;4791967;29;20039;-76
2022/05/12 06:29:41;;;;;;;;;;;;;;;;;;;;;
2022/05/12 06:32:17;;;;;;;5.15;2.28;;;;;;;8.85;100.00;100718.72;4871808;29;20117;-76
2022/05/12 06:34:42;;;;;;;10.55;2.42;;;;;;;9.03;100.00;100725.00;4885866;29;20085;-75
2022/05/12 06:37:10;;;;;;;8.73;2.90;;;;;;;9.13;100.00;100732.53;4880132;29;20037;-78
2022/05/12 06:39:53;;;;;;;8.85;2.65;;;;;;;9.08;100.00;100711.44;4891046;29;20021;-77
2022/05/12 06:42:27;;;;;;;11.32;2.72;;;;;;;9.19;100.00;100709.72;4880559;29;20116;-77
2022/05/12 06:45:15;;;;;;;6.30;2.35;;;;;;;9.38;100.00;100726.63;4881744;29;20036;-77
2022/05/12 06:48:11;;;;;;;;;;;;;;;;;;;;;
2022/05/12 06:51:13;;;;;;;;;;;;;;;;;;;;;
2022/05/12 06:53:57;;;;;;;11.80;2.40;;;;;;;9.69;100.00;100713.41;4879905;29;20128;-76
2022/05/12 06:56:28;;;;;;;17.40;3.13;;;;;;;9.84;100.00;100735.47;4868493;29;20064;-76
2022/05/12 06:58:54;;;;;;;16.23;3.55;;;;;;;10.02;100.00;100755.34;4865775;29;20041;-77
2022/05/12 07:01:24;;;;;;;16.85;3.03;;;;;;;10.04;100.00;100740.34;4904857;29;20057;-74
2022/05/12 07:03:57;;;;;;;12.73;2.65;;;;;;;9.99;100.00;100731.25;4880267;29;20044;-76
2022/05/12 07:06:25;;;;;;;12.05;2.50;;;;;;;10.38;100.00;100755.78;4893207;29;20032;-75
2022/05/12 07:09:01;;;;;;;;;;;;;;;;;;;;;
2022/05/12 07:11:45;;;;;;;9.48;1.83;;;;;;;10.54;100.00;100737.63;4896656;29;20084;-77
2022/05/12 07:14:14;;;;;;;10.73;2.28;;;;;;;10.61;97.17;100743.72;4894179;29;20442;-76
2022/05/12 07:16:52;;;;;;;7.40;1.73;;;;;;;10.71;98.55;100732.88;4886591;29;20036;-75
2022/05/12 07:19:19;;;;;;;10.93;2.20;;;;;;;10.83;98.09;100727.25;4898577;29;20413;-73
2022/05/12 07:27:19;;;;;;;17.13;2.50;;;;;;;11.40;93.31;100771.47;4897640;29;20092;-75
2022/05/12 07:29:45;;;;;;;15.40;1.98;;;;;;;11.49;93.13;100769.91;4899547;29;20024;-74
2022/05/12 07:32:11;;;;;;;9.90;1.85;;;;;;;11.62;90.90;100771.34;4897782;29;20048;-76
2022/05/12 07:34:37;;;;;;;14.55;2.30;;;;;;;11.62;90.86;100766.72;4898980;29;20080;-75
2022/05/12 07:37:06;;;;;;;5.47;1.77;;;;;;;11.82;91.09;100771.47;4898161;29;20041;-76
2022/05/12 07:39:34;;;;;;;7.22;1.42;;;;;;;12.04;92.02;100763.09;4897371;29;20075;-75
2022/05/12 07:42:02;;;;;;;11.88;1.95;;;;;;;12.30;89.22;100771.44;4881311;29;20037;-76
2022/05/12 07:44:44;;;;;;;;;;;;;;;;;;;;;
2022/05/12 07:47:23;;;;;;;;;;;;;;;;;;;;;
2022/05/12 07:49:59;;;;;;;;;;;;;;;;;;;;;
2022/05/12 07:52:32;;;;;;;9.77;1.75;;;;;;;12.42;85.51;100753.94;4898522;29;20085;-78
2022/05/12 07:55:04;;;;;;;11.50;1.65;;;;;;;12.59;84.41;100781.94;4884657;29;20040;-76
2022/05/12 07:57:29;;;;;;;13.32;2.08;;;;;;;12.59;84.01;100781.94;4872329;29;20035;-77
2022/05/12 07:59:55;;;;;;;14.73;2.30;;;;;;;12.57;83.94;100795.09;4888282;29;20483;-75
2022/05/12 08:02:20;;;;;;;15.63;2.72;;;;;;;12.58;85.10;100791.25;4923940;29;20480;-76
2022/05/12 08:04:46;;;;;;;16.55;1.98;;;;;;;12.59;82.36;100792.91;4920682;29;20490;-75
2022/05/12 08:07:12;;;;;;;10.63;1.60;;;;;;;12.63;82.41;100793.19;4881880;29;20101;-78
2022/05/12 08:09:44;;;;;;;19.63;1.67;;;;;;;12.72;83.50;100781.41;4907267;29;20032;-77
2022/05/12 08:12:10;;;;;;;8.13;1.77;;;;;;;12.89;82.16;100783.94;4904515;29;20044;-77
2022/05/12 08:14:36;;;;;;;13.30;1.88;;;;;;;13.02;80.96;100788.03;4900029;29;20036;-75
2022/05/12 08:17:02;;;;;;;11.43;2.17;;;;;;;12.92;78.86;100790.75;4905906;29;20118;-76
2022/05/12 08:19:29;;;;;;;7.47;2.05;;;;;;;12.98;77.06;100800.69;4872143;29;20032;-75
2022/05/12 08:21:54;;;;;;;7.35;1.02;;;;;;;12.96;77.93;100802.84;4875796;29;20102;-75
2022/05/12 08:24:20;;;;;;;13.98;1.60;;;;;;;13.00;75.13;100798.47;4903707;29;20056;-74
2022/05/12 08:26:45;;;;;;;7.78;1.08;;;;;;;12.89;74.36;100794.06;4905053;29;20098;-75
2022/05/12 08:29:11;;;;;;;2.20;0.98;;;;;;;13.00;75.86;100801.22;4889440;29;20032;-74
2022/05/12 08:31:36;;;;;;;4.78;1.15;;;;;;;13.21;74.79;100793.00;4909923;29;20067;-75
2022/05/12 08:34:02;;;;;;;9.55;1.30;;;;;;;13.42;72.94;100793.84;4890310;29;20036;-74
2022/05/12 08:36:30;;;;;;;7.45;1.42;;;;;;;13.52;74.22;100812.22;4888310;29;20036;-74
2022/05/12 08:39:18;;;;;;;15.10;1.48;;;;;;;13.53;73.94;100789.97;4903146;29;20112;-79
2022/05/12 08:42:01;;;;;;;4.80;1.17;;;;;;;13.63;73.60;100800.13;4912314;29;20078;-76
2022/05/12 08:44:32;;;;;;;9.45;1.10;;;;;;;13.55;70.66;100793.28;4903497;29;20024;-74
2022/05/12 08:47:01;;;;;;;7.63;1.48;;;;;;;13.61;71.77;100783.09;4919142;29;20043;-75
2022/05/12 08:49:52;;;;;;;7.13;1.25;;;;;;;13.78;69.48;100794.63;4905729;29;20518;-76
2022/05/12 08:52:30;;;;;;;14.73;1.42;;;;;;;13.81;70.55;100803.41;4907598;29;20043;-74
2022/05/12 08:55:25;;;;;;;9.38;1.38;;;;;;;13.84;70.58;100811.06;4915767;29;20533;-75
2022/05/12 08:58:08;;;;;;;4.35;1.00;;;;;;;14.00;71.25;100801.69;4901863;29;20041;-75
2022/05/12 09:00:47;;;;;;;5.13;1.60;;;;;;;14.21;68.79;100793.38;4903409;29;20039;-77
2022/05/12 09:03:39;;;;;;;4.75;1.15;;;;;;;14.34;65.82;100781.75;4905702;29;20123;-76
2022/05/12 09:06:26;;;;;;;5.60;1.15;;;;;;;14.55;66.74;100795.41;4907517;29;20024;-76
2022/05/12 09:09:02;;;;;;;4.15;0.95;;;;;;;14.45;65.71;100777.81;4919018;29;20019;-77
2022/05/12 09:11:38;;;;;;;13.90;1.65;;;;;;;14.77;64.74;100795.84;4906413;29;20083;-78
2022/05/12 09:14:16;;;;;;;11.02;1.23;;;;;;;14.86;66.46;100778.72;4916812;29;20103;-77
2022/05/12 09:16:41;;;;;;;7.10;1.45;;;;;;;15.38;65.45;100779.97;4920843;29;20044;-78
2022/05/12 09:19:19;;;;;;;8.85;1.60;;;;;;;15.39;61.22;100787.13;4921013;29;20055;-77
2022/05/12 09:21:59;;;;;;;;;;;;;;;;;;;;;
2022/05/12 09:24:37;;;;;;;4.30;1.15;;;;;;;15.42;63.71;100771.91;4893658;29;20075;-74
2022/05/12 09:27:27;;;;;;;11.05;1.25;;;;;;;15.81;63.36;100802.19;4921336;29;20043;-76
2022/05/12 09:30:03;;;;;;;;;;;;;;;;;;;;;
2022/05/12 09:32:41;;;;;;;8.40;1.70;;;;;;;16.18;57.18;100775.81;4918777;29;20124;-76
2022/05/12 09:35:12;;;;;;;7.82;0.80;;;;;;;16.03;57.97;100801.66;4902966;29;20012;-76
2022/05/12 09:37:40;;;;;;;8.15;1.80;;;;;;;15.63;59.12;100797.38;4906479;29;20055;-76
2022/05/12 09:40:35;;;;;;;7.03;1.30;;;;;;;15.41;62.85;100809.69;4903676;29;20025;-76
2022/05/12 09:43:29;;;;;;;9.63;0.95;;;;;;;15.35;62.94;100813.59;4916413;29;20032;-76
2022/05/12 09:46:29;;;;;;;7.40;1.55;;;;;;;16.15;67.25;100795.72;4883356;29;20723;-74
2022/05/12 09:49:38;;;;;;;3.65;1.05;;;;;;;19.29;59.72;100800.22;4898898;29;20028;-76
2022/05/12 09:52:18;;;;;;;7.50;1.10;;;;;;;21.00;56.39;100785.97;4908446;29;20052;-76
2022/05/12 09:54:49;;;;;;;5.68;1.33;;;;;;;22.44;46.92;100808.75;4905126;29;20091;-76
2022/05/12 09:57:34;;;;;;;;;;;;;;;;;;;;;
2022/05/12 10:00:02;;;;;;;6.32;1.30;;;;;;;26.37;36.33;100815.59;4917687;29;20088;-76
2022/05/12 10:08:33;;;;;;;7.18;1.27;;;;;;;21.90;45.31;100818.53;4918723;29;20104;-76
2022/05/12 10:11:08;;;;;;;4.00;1.02;;;;;;;19.34;45.21;100828.63;4903855;29;20047;-76
2022/05/12 10:13:43;;;;;;;11.45;1.48;;;;;;;17.98;52.04;100819.16;4901969;29;20036;-76
2022/05/12 10:16:11;;;;;;;5.20;0.90;;;;;;;17.74;49.83;100806.31;4916049;29;20036;-76
2022/05/12 10:18:43;;;;;;;5.30;1.30;;;;;;;19.57;49.20;100819.50;4921344;29;20102;-75
2022/05/12 10:21:21;;;;;;;8.68;1.23;;;;;;;19.30;48.92;100819.34;4900246;29;20107;-74
2022/05/12 10:24:10;;;;;;;9.90;1.38;;;;;;;18.76;49.55;100815.59;5049025;23;20049;-79
2022/05/12 10:26:36;;;;;;;4.93;0.95;;;;;;;18.65;48.90;100826.91;4901258;29;20042;-79
2022/05/12 10:29:27;;;;;;;10.25;1.08;;;;;;;19.19;58.64;100817.94;4899852;29;20616;-80
2022/05/12 10:32:32;;;;;;;7.90;1.13;;;;;;;20.36;61.64;100815.94;4884164;29;20037;-80
2022/05/12 10:35:23;;;;;;;8.15;1.02;;;;;;;20.58;53.05;100808.63;4859610;29;20088;-80
2022/05/12 10:38:30;;;;;;;;;;;;;;;;;;;;;
2022/05/12 10:41:38;;;;;;;6.15;1.48;;;;;;;20.11;51.91;100795.28;4893232;29;20115;-80
2022/05/12 10:44:18;;;;;;;6.00;1.50;;;;;;;20.01;49.74;100810.25;4893349;29;20029;-79
2022/05/12 10:47:22;;;;;;;4.70;1.05;;;;;;;19.64;50.87;100812.38;4886234;29;20057;-79
2022/05/12 10:50:07;;;;;;;3.33;0.93;;;;;;;19.52;54.62;100814.88;4887417;29;20032;-79
2022/05/12 10:52:38;;;;;;;4.10;1.02;;;;;;;19.50;50.15;100803.31;4881417;29;20016;-79
2022/05/12 10:55:23;;;;;;;8.63;1.40;;;;;;;19.74;51.11;100796.56;4886490;29;20028;-79
2022/05/12 10:57:59;;;;;;;4.95;1.30;;;;;;;20.39;50.76;100808.91;4893684;29;20036;-80
2022/05/12 11:00:37;;;;;;;5.78;1.15;;;;;;;20.94;54.51;100810.34;4882560;29;20013;-80
2022/05/12 11:03:18;;;;;;;4.18;0.95;;;;;;;21.17;51.69;100804.56;4895055;29;20103;-80
2022/05/12 11:05:49;;;;;;;5.15;1.13;;;;;;;21.19;49.29;100782.84;4882021;29;20061;-80
2022/05/12 11:08:20;;;;;;;5.13;1.50;;;;;;;21.26;50.39;100811.78;4897742;29;20037;-80
2022/05/12 11:10:54;;;;;;;3.63;1.30;;;;;;;21.43;51.76;100810.91;4890584;29;20081;-80
2022/05/12 11:13:32;;;;;;;5.60;0.88;;;;;;;21.30;50.54;100819.47;4895534;29;20041;-80
2022/05/12 11:16:05;;;;;;;5.75;1.20;;;;;;;20.88;50.28;100808.84;4895048;29;20096;-81
2022/05/12 11:19:03;;;;;;;;;;;;;;;;;;;;;
2022/05/12 11:21:51;;;;;;;;;;;;;;;;;;;;;
2022/05/12 11:24:37;;;;;;;6.82;2.78;;;;;;;20.85;52.37;100803.94;4903019;29;20171;-79
2022/05/12 11:27:28;;;;;;;5.13;1.10;;;;;;;21.31;51.27;100808.00;4902781;29;20032;-79
2022/05/12 14:01:04;;;;;;;8.75;1.67;;;;;;;16.16;58.38;100758.72;4814485;29;20587;-79
2022/05/12 14:03:32;;;;;;;5.63;1.42;;;;;;;15.82;59.64;100732.09;4812780;29;20042;-79
2022/05/12 14:06:19;;;;;;;7.35;1.52;;;;;;;15.94;61.83;100763.97;4876659;29;20013;-79
2022/05/12 14:09:03;;;;;;;7.65;1.33;;;;;;;16.03;61.01;100759.44;4860578;29;20029;-78
2022/05/12 14:11:44;;;;;;;6.80;1.30;;;;;;;15.76;59.28;100716.72;4879467;29;20027;-79
2022/05/12 14:20:12;;;;;;;9.35;1.50;;;;;;;15.66;59.46;100744.41;4849613;29;20158;-80
2022/05/12 14:22:42;;;;;;;4.82;1.30;;;;;;;15.84;58.43;100776.78;4860769;29;20033;-80
2022/05/12 14:25:17;;;;;;;6.57;1.42;;;;;;;15.67;57.52;100740.53;4870764;29;20104;-79
2022/05/12 14:27:43;;;;;;;3.63;1.00;;;;;;;15.61;58.12;100727.91;4876314;29;20155;-80
2022/05/12 14:30:27;;;;;;;4.45;1.15;;;;;;;15.89;60.17;100753.81;4848211;29;20041;-79
2022/05/12 14:33:13;;;;;;;6.72;1.48;;;;;;;16.22;60.02;100763.06;4848642;29;20092;-80
2022/05/12 14:35:48;;;;;;;;;;;;;;;;;;;;;
2022/05/12 14:38:16;;;;;;;8.68;1.25;;;;;;;16.70;56.48;100766.81;4863173;29;20115;-79
2022/05/12 14:40:56;;;;;;;5.18;1.33;;;;;;;16.68;60.70;100752.50;4863773;29;20029;-80
2022/05/12 14:43:36;;;;;;;6.72;1.08;;;;;;;16.61;58.80;100752.06;4858831;29;20029;-79
2022/05/12 14:46:05;;;;;;;5.78;1.10;;;;;;;16.37;58.60;100742.72;4862515;29;20029;-78
2022/05/12 14:48:34;;;;;;;10.40;1.23;;;;;;;15.99;59.05;100731.63;4867037;29;20096;-78
2022/05/12 14:51:00;;;;;;;10.35;1.30;;;;;;;15.68;58.70;100722.88;4859707;29;20025;-78
2022/05/12 14:54:15;;;;;;;9.05;1.55;;;;;;;15.48;59.02;100749.53;4854736;29;20124;-81
2022/05/12 14:56:55;;;;;;;8.98;1.00;;;;;;;15.17;59.98;100749.84;4848152;29;20051;-80
2022/05/12 14:59:22;;;;;;;5.45;1.00;;;;;;;15.20;60.09;100759.47;4853976;29;20052;-77
2022/05/12 15:01:48;;;;;;;5.65;1.48;;;;;;;15.11;61.19;100740.00;4878571;29;20089;-76
2022/05/12 15:04:13;;;;;;;6.95;1.63;;;;;;;15.26;59.47;100729.91;4864614;29;20433;-76
2022/05/12 15:06:39;;;;;;;6.63;0.93;;;;;;;15.37;60.60;100748.00;4851557;29;20005;-75
2022/05/12 15:09:05;;;;;;;3.72;0.95;;;;;;;15.45;59.63;100750.13;4867041;29;20147;-75
2022/05/12 15:11:32;;;;;;;6.90;0.98;;;;;;;15.61;59.49;100752.72;4878869;29;20048;-76
2022/05/12 15:13:58;;;;;;;7.70;1.55;;;;;;;15.82;58.71;100754.16;4878668;29;20055;-76
2022/05/12 15:16:27;;;;;;;11.43;1.08;;;;;;;16.20;58.38;100745.97;4832629;29;20037;-76
2022/05/12 15:18:53;;;;;;;7.10;1.00;;;;;;;18.77;54.90;100753.53;4879696;29;20033;-76
2022/05/12 15:25:29;;;;;;;4.45;0.88;;;;;;;20.21;52.70;100747.78;4877697;29;20044;-77
2022/05/12 15:28:17;;;;;;;5.72;1.10;;;;;;;19.99;49.99;100715.41;4876272;29;20044;-75
2022/05/12 15:30:42;;;;;;;4.60;1.20;;;;;;;19.63;48.23;100713.63;4864542;29;20032;-76
2022/05/12 15:33:08;;;;;;;3.05;1.00;;;;;;;19.09;47.02;100718.41;4879208;29;20041;-75
2022/05/12 15:35:34;;;;;;;2.70;0.95;;;;;;;18.62;50.23;100722.28;4861190;29;20056;-77
2022/05/12 15:37:59;;;;;;;3.55;1.10;;;;;;;18.21;49.88;100717.69;4853379;29;20105;-78
2022/05/12 15:40:41;;;;;;;;;;;;;;;;;;;;;
2022/05/12 15:43:37;;;;;;;;;;;;;;;;;;;;;
2022/05/12 15:46:05;;;;;;;4.15;0.75;;;;;;;19.03;51.37;100706.63;4860942;29;20124;-75
2022/05/12 15:48:39;;;;;;;4.47;0.80;;;;;;;21.44;45.65;100717.97;4858132;29;20021;-76
2022/05/12 15:51:35;;;;;;;6.30;0.70;;;;;;;22.59;44.16;100704.25;4846891;29;20589;-77
2022/05/12 15:54:32;;;;;;;4.60;0.73;;;;;;;22.38;43.67;100712.63;4841918;29;20056;-76
2022/05/12 15:57:24;;;;;;;10.93;1.27;;;;;;;20.61;44.89;100727.41;4846510;29;20544;-78
2022/05/12 16:03:07;;;;;;;6.15;1.50;;;;;;;17.77;53.18;100717.19;4851361;29;20049;-75
2022/05/12 16:05:48;;;;;;;;;;;;;;;;;;;;;
2022/05/12 16:08:36;;;;;;;5.50;1.20;;;;;;;16.37;55.62;100709.59;4861041;29;20113;-77
2022/05/12 16:11:07;;;;;;;6.45;1.10;;;;;;;15.85;59.60;100698.44;4861912;29;20081;-76
2022/05/12 16:13:37;;;;;;;9.95;2.10;;;;;;;15.70;61.02;100706.88;4861687;29;20040;-76
2022/05/12 16:16:08;;;;;;;7.35;1.40;;;;;;;15.74;61.52;100731.91;4860787;29;20104;-75
2022/05/12 16:18:43;;;;;;;7.30;1.30;;;;;;;15.67;61.70;100724.00;4864669;29;20106;-75
2022/05/12 16:21:35;;;;;;;5.75;1.30;;;;;;;15.62;63.14;100713.03;4859411;29;20070;-77
2022/05/12 16:24:06;;;;;;;7.03;1.30;;;;;;;15.66;61.33;100681.00;4882242;29;20090;-76
2022/05/12 16:26:42;;;;;;;13.35;1.30;;;;;;;16.05;61.15;100710.34;4859668;29;20025;-76
2022/05/12 16:29:49;;;;;;;;;;;;;;;;;;;;;
2022/05/12 16:32:18;;;;;;;9.88;2.00;;;;;;;15.87;61.99;100723.78;4857200;29;20425;-75
2022/05/12 16:35:35;;;;;;;6.03;1.10;;;;;;;15.33;62.92;100683.56;4866839;29;20043;-77
2022/05/12 16:38:14;;;;;;;6.00;1.42;;;;;;;15.24;61.79;100701.84;4838320;29;20050;-77
2022/05/12 16:40:42;;;;;;;6.45;1.02;;;;;;;14.95;63.84;100686.97;4853289;29;20098;-76
2022/05/12 16:45:57;;;;;;;7.30;1.17;;;;;;;15.02;65.04;100719.66;4849112;29;20042;-78
2022/05/12 16:48:30;;;;;;;4.63;1.13;;;;;;;14.98;63.69;100713.09;4840863;29;20037;-78
2022/05/12 16:50:58;;;;;;;4.10;0.80;;;;;;;14.84;64.38;100708.25;4840064;29;20065;-77
2022/05/12 16:53:35;;;;;;;;;;;;;;;;;;;;;
2022/05/12 16:56:04;;;;;;;5.68;1.15;;;;;;;14.80;65.30;100693.41;4840500;29;20097;-79
2022/05/12 16:58:47;;;;;;;7.55;1.58;;;;;;;14.74;65.46;100685.50;4850641;29;20018;-75
2022/05/12 17:01:19;;;;;;;7.15;1.50;;;;;;;14.84;64.82;100701.94;4835733;29;20671;-76
2022/05/12 17:03:46;;;;;;;6.45;1.33;;;;;;;14.81;65.58;100713.53;4837326;29;20094;-76
2022/05/12 17:06:12;;;;;;;11.23;1.38;;;;;;;14.80;65.50;100709.13;4823368;29;20038;-74
2022/05/12 17:08:37;;;;;;;4.43;1.00;;;;;;;14.73;66.00;100705.88;4821083;29;20031;-76
2022/05/12 17:11:07;;;;;;;6.93;2.17;;;;;;;14.76;65.79;100708.88;4840909;29;20125;-76
2022/05/12 17:13:34;;;;;;;5.05;1.58;;;;;;;14.64;66.18;100692.72;4806878;29;20030;-73
2022/05/12 17:16:01;;;;;;;3.90;1.05;;;;;;;14.72;66.30;100709.72;4856496;29;20037;-75
2022/05/12 17:25:11;;;;;;;6.38;0.80;;;;;;;14.97;65.28;100700.44;4834711;29;20163;-75
2022/05/12 17:27:41;;;;;;;7.15;1.80;;;;;;;15.21;65.28;100699.69;4834918;29;20041;-78
2022/05/12 17:30:08;;;;;;;3.85;0.82;;;;;;;15.41;64.32;100707.72;4850856;29;20038;-78
2022/05/12 17:32:34;;;;;;;11.20;1.42;;;;;;;15.38;64.88;100708.31;4836519;29;20042;-76
2022/05/12 17:35:00;;;;;;;8.77;0.80;;;;;;;15.30;64.96;100697.91;4812657;29;20046;-77
2022/05/12 17:37:28;;;;;;;4.10;1.02;;;;;;;15.31;64.64;100708.66;4862334;29;20053;-79
2022/05/12 17:39:55;;;;;;;4.25;1.15;;;;;;;15.28;65.25;100720.25;4856213;29;20398;-73
2022/05/12 17:42:21;;;;;;;12.02;1.58;;;;;;;15.25;66.04;100711.75;4855008;29;20111;-77
2022/05/12 17:44:47;;;;;;;9.60;1.17;;;;;;;15.28;65.00;100722.19;4853020;29;20595;-75
2022/05/12 17:47:12;;;;;;;4.97;1.35;;;;;;;15.25;65.93;100700.75;4863723;29;20037;-75
2022/05/12 17:49:41;;;;;;;7.68;1.15;;;;;;;15.27;65.43;100715.03;4847960;29;20049;-75
2022/05/12 17:52:11;;;;;;;7.53;1.35;;;;;;;15.38;64.87;100719.34;4866482;29;20028;-75
2022/05/12 17:54:37;;;;;;;7.22;1.30;;;;;;;15.46;65.44;100702.19;4859986;29;20021;-76
2022/05/12 17:57:05;;;;;;;9.70;1.20;;;;;;;15.52;64.60;100711.19;4853153;29;20013;-75
2022/05/12 17:59:31;;;;;;;5.72;1.30;;;;;;;15.63;65.04;100720.19;4846775;29;20033;-74
2022/05/12 18:01:59;;;;;;;9.07;1.00;;;;;;;15.47;64.05;100697.47;4863377;29;20047;-75
2022/05/12 18:04:30;;;;;;;5.68;1.10;;;;;;;15.65;63.12;100709.66;4862364;29;20030;-74
2022/05/12 18:07:08;;;;;;;;;;;;;;;;;;;;;
2022/05/12 18:09:34;;;;;;;5.63;1.02;;;;;;;16.05;63.03;100724.94;4864947;29;20036;-75
2022/05/12 18:12:01;;;;;;;6.63;1.30;;;;;;;16.01;63.03;100723.06;4849140;29;20040;-74
2022/05/12 18:14:27;;;;;;;4.88;1.30;;;;;;;15.69;64.13;100694.19;4865494;29;20034;-74
2022/05/12 18:16:53;;;;;;;8.05;1.17;;;;;;;15.50;62.62;100725.25;4833221;29;20009;-75
2022/05/12 18:19:19;;;;;;;6.60;1.05;;;;;;;15.05;63.61;100724.59;4848021;29;20025;-75
2022/05/12 18:21:45;;;;;;;4.15;0.75;;;;;;;14.67;65.22;100724.34;4867210;29;20039;-75
2022/05/12 18:24:10;;;;;;;3.33;0.90;;;;;;;14.35;66.67;100733.06;4854974;29;20570;-75
2022/05/12 18:26:40;;;;;;;3.53;1.00;;;;;;;14.00;68.47;100721.94;4828825;29;20021;-76
2022/05/12 18:29:08;;;;;;;7.28;1.08;;;;;;;13.81;69.17;100724.50;4850588;29;20037;-76
2022/05/12 18:31:34;;;;;;;3.60;0.90;;;;;;;13.73;69.50;100720.41;4872468;29;20033;-75
2022/05/12 18:33:59;;;;;;;6.05;1.35;;;;;;;13.71;69.35;100722.63;4854700;29;20039;-75
2022/05/12 18:36:25;;;;;;;7.18;1.08;;;;;;;13.65;71.85;100718.22;4844914;29;20050;-74
2022/05/12 18:38:51;;;;;;;5.40;1.38;;;;;;;13.62;71.52;100707.78;4862646;29;20076;-75
2022/05/12 18:41:16;;;;;;;4.75;0.90;;;;;;;13.62;70.42;100710.53;4854781;29;20504;-75
2022/05/12 18:43:49;;;;;;;7.00;1.00;;;;;;;13.58;70.21;100714.94;4861947;29;20034;-75
2022/05/12 18:49:54;;;;;;;9.55;1.27;;;;;;;13.50;71.06;100713.59;4861603;29;20157;-74
2022/05/12 18:55:11;;;;;;;4.65;1.13;;;;;;;13.37;72.93;100704.00;4850414;29;20045;-74
2022/05/12 18:57:40;;;;;;;5.85;1.35;;;;;;;13.27;72.82;100687.53;4854854;29;20026;-75
2022/05/12 19:00:09;;;;;;;5.50;1.08;;;;;;;13.35;72.01;100700.72;4859561;29;20036;-74
2022/05/12 19:02:34;;;;;;;6.43;1.13;;;;;;;13.35;71.31;100700.72;4860550;29;20030;-76
2022/05/12 19:05:39;;;;;;;;;;;;;;;;;;;;;
2022/05/12 19:08:13;;;;;;;1.25;0.70;;;;;;;13.33;71.04;100718.56;4852001;29;20124;-76
2022/05/12 19:10:39;;;;;;;7.38;1.30;;;;;;;13.21;71.83;100716.09;4867705;29;20105;-78
2022/05/12 19:13:43;;;;;;;;;;;;;;;;;;;;;
2022/05/12 19:17:16;;;;;;;;;;;;;;;;;;;;;
2022/05/12 19:19:44;;;;;;;5.00;0.90;;;;;;;12.84;73.09;100711.72;4739500;30;20131;-75
2022/05/12 19:22:12;;;;;;;7.53;1.42;;;;;;;12.62;74.07;100704.59;4861056;29;20040;-75
2022/05/12 19:24:38;;;;;;;5.18;1.20;;;;;;;12.62;74.52;100717.50;4856049;29;20113;-76
2022/05/12 19:27:14;;;;;;;;;;;;;;;;;;;;;
2022/05/12 19:29:44;;;;;;;7.20;1.00;;;;;;;12.44;74.11;100696.88;4859344;29;20038;-74
2022/05/12 19:32:10;;;;;;;8.73;1.10;;;;;;;12.49;74.33;100705.13;4878492;29;20188;-75
2022/05/12 19:34:36;;;;;;;6.28;1.38;;;;;;;12.56;74.02;100728.44;4860066;29;20054;-75
2022/05/12 19:37:01;;;;;;;5.57;0.90;;;;;;;12.51;74.20;100716.63;4830013;29;20121;-74
2022/05/12 19:39:27;;;;;;;3.30;0.90;;;;;;;12.53;74.22;100722.69;4858374;29;20030;-75
2022/05/12 19:41:57;;;;;;;5.43;0.93;;;;;;;12.53;74.55;100725.44;4853719;29;20018;-76
2022/05/12 19:44:24;;;;;;;8.85;1.20;;;;;;;12.43;74.45;100714.44;4861881;29;20412;-74
2022/05/12 19:46:52;;;;;;;7.80;1.15;;;;;;;12.52;74.56;100729.25;4847816;29;20350;-75
2022/05/12 19:49:20;;;;;;;12.57;1.17;;;;;;;12.46;74.94;100722.13;4866631;29;20037;-76
2022/05/12 19:51:46;;;;;;;2.25;0.70;;;;;;;12.46;74.58;100727.59;4869732;29;20029;-75
2022/05/12 19:54:12;;;;;;;2.38;0.70;;;;;;;12.42;75.24;100735.53;4848973;29;20074;-74
2022/05/12 20:03:34;;;;;;;7.35;1.27;;;;;;;12.32;75.66;100744.56;4859118;29;20048;-75
2022/05/12 20:06:01;;;;;;;4.47;0.73;;;;;;;12.32;75.89;100750.03;4846148;29;20190;-75
2022/05/12 20:08:26;;;;;;;4.72;1.00;;;;;;;12.22;75.79;100747.25;4849477;29;20049;-75